RJTL(METAR)
05/30 17:00
METAR RJTL 300800Z 19009KT 170V230 9999 FEW030 BKN/// 25/15 Q1019
RMK 1CU030 A3010=
戻る
トップページへ戻る
IMOC Co,.Ltd.